Time;durP1;ratioP1;P1;durP2;ratioP2;P2;SDS_P1;SDS_P2;PMS_P1;PMS_P2;Temp;Humidity;BMP_temperature;BMP_pressure;BME280_temperature;BME280_humidity;BME280_pressure;Samples;Min_cycle;Max_cycle;Signal;HPM_P1;HPM_P2
2021/12/29 00:00:38;;;;;;;279.10;166.13;;;179.30;2252.80;;;;;;5053035;28;20098;-59
2021/12/29 00:03:03;;;;;;;311.65;196.18;;;179.40;2252.80;;;;;;5053216;28;20352;-59
2021/12/29 00:05:29;;;;;;;298.83;191.63;;;179.40;2252.80;;;;;;5053091;28;20123;-60
2021/12/29 00:07:56;;;;;;;281.80;177.70;;;179.40;2252.80;;;;;;5051605;28;20029;-60
2021/12/29 00:10:22;;;;;;;233.60;152.23;;;;;;;;;;5052911;28;20422;-59
2021/12/29 00:12:52;;;;;;;250.32;154.43;;;;;;;;;;5053096;28;20382;-60
2021/12/29 00:15:19;;;;;;;268.70;178.02;;;;;;;;;;5037923;28;20463;-60
2021/12/29 00:17:45;;;;;;;266.65;176.43;;;;;;;;;;5032956;28;20538;-60
2021/12/29 00:20:13;;;;;;;289.58;185.77;;;;;;;;;;5032999;28;20056;-59
2021/12/29 00:22:39;;;;;;;329.58;209.63;;;;;;;;;;5048575;28;20105;-60
2021/12/29 00:25:08;;;;;;;321.08;205.45;;;;;;;;;;5052917;28;20481;-59
2021/12/29 00:27:34;;;;;;;321.95;211.10;;;;;;;;;;5053150;28;20025;-59
2021/12/29 00:30:00;;;;;;;331.30;214.65;;;;;;;;;;5052630;28;20480;-60
2021/12/29 00:32:29;;;;;;;289.42;187.25;;;;;;;;;;5052538;28;20157;-60
2021/12/29 00:34:55;;;;;;;258.27;164.90;;;;;;;;;;5052832;28;20017;-60
2021/12/29 00:37:21;;;;;;;223.60;144.15;;;;;;;;;;5051355;28;20021;-59
2021/12/29 00:39:47;;;;;;;184.68;117.45;;;;;;;;;;5052861;28;20017;-60
2021/12/29 00:42:13;;;;;;;211.52;131.70;;;;;;;;;;5051054;28;20033;-60
2021/12/29 00:44:39;;;;;;;214.00;136.05;;;;;;;;;;5052324;28;20498;-59
2021/12/29 00:47:05;;;;;;;216.48;139.75;;;;;;;;;;5052638;28;20028;-59
2021/12/29 00:49:34;;;;;;;264.23;170.63;;;;;;;;;;5052337;28;20522;-59
2021/12/29 00:52:01;;;;;;;312.42;204.20;;;;;;;;;;5052043;28;20029;-60
2021/12/29 00:54:27;;;;;;;322.30;212.23;;;;;;;;;;5052079;28;20029;-59
2021/12/29 00:56:56;;;;;;;309.67;204.20;;;179.80;2252.80;;;;;;5052599;28;20029;-60
2021/12/29 00:59:24;;;;;;;284.48;183.13;;;179.70;2252.80;;;;;;5051941;28;20482;-60
2021/12/29 01:01:51;;;;;;;262.95;162.20;;;179.70;2252.80;;;;;;5052788;28;20037;-59
2021/12/29 01:04:17;;;;;;;197.18;125.35;;;179.80;2252.80;;;;;;5052292;28;20024;-61
2021/12/29 01:06:43;;;;;;;182.98;120.95;;;179.70;2252.80;;;;;;5052228;28;20025;-60
2021/12/29 01:09:09;;;;;;;161.35;108.82;;;179.70;2252.80;;;;;;5052301;28;20036;-60
2021/12/29 01:11:36;;;;;;;117.57;80.90;;;179.80;2252.80;;;;;;5051841;28;20037;-60
2021/12/29 01:14:03;;;;;;;112.63;74.45;;;179.80;2252.80;;;;;;5052288;28;20025;-60
2021/12/29 01:19:00;;;;;;;109.30;75.57;;;179.60;2252.80;;;;;;5052600;28;20025;-63
2021/12/29 01:21:26;;;;;;;109.25;74.22;;;179.80;2252.80;;;;;;5052000;28;20056;-60
2021/12/29 01:23:52;;;;;;;140.52;90.95;;;179.90;2252.80;;;;;;5052507;28;20028;-60
2021/12/29 01:26:17;;;;;;;132.80;87.75;;;180.00;2252.80;;;;;;5052394;28;20025;-60
2021/12/29 01:28:44;;;;;;;120.05;84.82;;;;;;;;;;5051850;28;20044;-59
2021/12/29 01:31:10;;;;;;;131.15;89.15;;;;;;;;;;5051736;28;20053;-59
2021/12/29 01:33:36;;;;;;;109.75;72.00;;;;;;;;;;5051977;28;20106;-60
2021/12/29 01:36:02;;;;;;;111.68;72.97;;;;;;;;;;5052039;28;20421;-58
2021/12/29 01:38:28;;;;;;;114.13;76.80;;;;;;;;;;5051899;28;20049;-60
2021/12/29 01:40:55;;;;;;;119.13;78.28;;;;;;;;;;5052013;28;20028;-59
2021/12/29 01:43:21;;;;;;;124.28;80.05;;;;;;;;;;5051759;28;20117;-59
2021/12/29 01:45:50;;;;;;;120.13;82.07;;;179.50;2252.80;;;;;;5051857;28;20491;-61
2021/12/29 01:48:16;;;;;;;123.75;82.10;;;179.50;2252.80;;;;;;5051868;28;20036;-60
2021/12/29 01:50:48;;;;;;;137.20;93.80;;;179.80;2252.80;;;;;;5051820;28;20384;-58
2021/12/29 01:53:23;;;;;;;;;;;179.80;2252.80;;;;;;5052033;28;20552;-59
2021/12/29 01:55:51;;;;;;;159.00;101.95;;;180.00;2252.80;;;;;;5051761;28;19909;-59
2021/12/29 01:58:20;;;;;;;162.13;101.85;;;180.00;2252.80;;;;;;5052176;28;20032;-60
2021/12/29 02:00:50;;;;;;;152.27;100.15;;;180.10;2252.80;;;;;;5051809;28;20313;-59
2021/12/29 02:03:16;;;;;;;130.85;87.50;;;180.00;2252.80;;;;;;5051693;28;20029;-60
2021/12/29 02:05:43;;;;;;;136.07;89.30;;;180.00;2252.80;;;;;;5051615;28;20061;-59
2021/12/29 02:08:10;;;;;;;115.18;74.80;;;180.00;2252.80;;;;;;5051606;28;20027;-59
2021/12/29 02:10:43;;;;;;;116.97;77.30;;;180.10;2252.80;;;;;;5051392;28;20029;-60
2021/12/29 02:13:13;;;;;;;117.30;77.20;;;180.00;2252.80;;;;;;5051643;28;20029;-61
2021/12/29 02:15:38;;;;;;;109.72;73.85;;;180.10;2252.80;;;;;;5051535;28;20467;-59
2021/12/29 02:18:15;;;;;;;112.13;75.88;;;180.00;2252.80;;;;;;5051583;28;20116;-62
2021/12/29 02:20:47;;;;;;;101.40;67.45;;;179.80;2252.80;;;;;;5051805;28;20608;-60
2021/12/29 02:23:28;;;;;;;91.20;61.92;;;179.80;2252.80;;;;;;5051769;28;20060;-61
2021/12/29 02:25:56;;;;;;;92.28;59.22;;;179.80;2252.80;;;;;;5051831;28;20025;-60
2021/12/29 02:28:31;;;;;;;78.22;53.90;;;179.70;2252.80;;;;;;5051707;28;20031;-60
2021/12/29 02:30:59;;;;;;;81.07;55.20;;;179.70;2252.80;;;;;;5051438;28;20102;-61
2021/12/29 02:33:26;;;;;;;89.18;56.75;;;179.70;2252.80;;;;;;5051782;28;20017;-60
2021/12/29 02:35:52;;;;;;;75.60;51.83;;;179.90;2252.80;;;;;;5052277;28;20093;-61
2021/12/29 02:38:43;;;;;;;89.13;57.80;;;179.90;2252.80;;;;;;5052927;28;20028;-60
2021/12/29 02:41:12;;;;;;;91.20;57.95;;;179.80;2252.80;;;;;;5055344;28;20028;-60
2021/12/29 02:43:39;;;;;;;86.63;56.83;;;;;;;;;;5055319;28;20036;-61
2021/12/29 02:46:11;;;;;;;90.72;58.80;;;;;;;;;;5055087;28;20021;-60
2021/12/29 02:48:40;;;;;;;89.18;62.55;;;;;;;;;;5038980;28;20033;-60
2021/12/29 02:51:08;;;;;;;138.35;92.60;;;;;;;;;;5037373;28;20247;-60
2021/12/29 02:53:34;;;;;;;141.10;94.97;;;;;;;;;;5054871;28;20045;-60
2021/12/29 02:56:00;;;;;;;156.05;105.35;;;;;;;;;;5054760;28;20112;-60
2021/12/29 02:58:27;;;;;;;193.68;129.40;;;;;;;;;;5054601;28;20087;-61
2021/12/29 03:00:53;;;;;;;214.45;144.10;;;;;;;;;;5054997;28;20534;-60
2021/12/29 03:03:21;;;;;;;253.65;159.20;;;;;;;;;;5054492;28;20037;-60
2021/12/29 03:05:47;;;;;;;239.73;150.70;;;;;;;;;;5054617;28;20105;-60
2021/12/29 03:08:14;;;;;;;238.00;158.20;;;;;;;;;;5054623;28;20097;-60
2021/12/29 03:10:41;;;;;;;264.92;169.05;;;;;;;;;;5054177;28;20055;-59
2021/12/29 03:13:07;;;;;;;255.40;170.63;;;;;;;;;;5054353;28;20111;-60
2021/12/29 03:15:34;;;;;;;271.80;180.80;;;;;;;;;;5054362;28;20028;-60
2021/12/29 03:18:00;;;;;;;281.20;184.20;;;;;;;;;;5054256;28;20021;-60
2021/12/29 03:20:26;;;;;;;294.75;198.52;;;;;;;;;;5054300;28;20100;-60
2021/12/29 03:22:53;;;;;;;291.13;186.25;;;;;;;;;;5054040;28;20422;-59
2021/12/29 03:25:19;;;;;;;285.35;187.60;;;;;;;;;;5054284;28;20379;-60
2021/12/29 03:27:45;;;;;;;276.45;178.00;;;;;;;;;;5054162;28;20094;-60
2021/12/29 03:30:12;;;;;;;256.10;161.98;;;;;;;;;;5053691;28;20058;-59
2021/12/29 03:32:42;;;;;;;221.77;142.77;;;;;;;;;;5053798;28;20032;-60
2021/12/29 03:35:09;;;;;;;217.50;140.10;;;;;;;;;;5054073;28;20077;-63
2021/12/29 03:37:35;;;;;;;219.18;140.77;;;;;;;;;;5054194;28;20036;-62
2021/12/29 03:40:01;;;;;;;203.23;135.07;;;;;;;;;;5054206;28;20032;-61
2021/12/29 03:42:30;;;;;;;201.10;134.68;;;;;;;;;;5054041;28;20035;-62
2021/12/29 03:44:56;;;;;;;217.00;140.57;;;;;;;;;;5053826;28;20446;-60
2021/12/29 03:47:22;;;;;;;381.92;267.15;;;;;;;;;;5034445;28;20428;-62
2021/12/29 03:49:48;;;;;;;225.85;151.60;;;;;;;;;;5033775;28;20068;-62
2021/12/29 03:52:14;;;;;;;169.20;112.10;;;;;;;;;;5045247;28;20037;-63
2021/12/29 03:54:40;;;;;;;156.45;108.85;;;;;;;;;;5053547;28;20020;-60
2021/12/29 03:57:06;;;;;;;176.75;114.75;;;;;;;;;;5053498;28;20531;-59
2021/12/29 03:59:32;;;;;;;142.77;98.22;;;;;;;;;;5053756;28;20028;-60
2021/12/29 04:02:00;;;;;;;153.68;101.35;;;;;;;;;;5053535;28;20028;-60
2021/12/29 04:04:26;;;;;;;139.25;91.32;;;;;;;;;;5053407;28;20348;-60
2021/12/29 04:06:52;;;;;;;134.75;90.25;;;;;;;;;;5052224;28;20468;-60
2021/12/29 04:09:19;;;;;;;127.30;89.93;;;;;;;;;;5053441;28;20056;-59
2021/12/29 04:11:50;;;;;;;122.22;81.20;;;204.90;2252.80;;;;;;5053415;28;20033;-63
2021/12/29 04:14:20;;;;;;;112.05;74.22;;;204.90;2252.80;;;;;;5053321;28;20044;-59
2021/12/29 04:16:47;;;;;;;108.97;72.07;;;205.00;2252.80;;;;;;5053323;28;20028;-60
2021/12/29 04:19:17;;;;;;;135.60;101.13;;;205.10;2252.80;;;;;;5052956;28;20107;-59
2021/12/29 04:21:45;;;;;;;169.27;103.10;;;205.30;2252.80;;;;;;5052904;28;20025;-63
2021/12/29 04:24:13;;;;;;;131.35;88.75;;;205.40;2252.80;;;;;;5051759;28;20021;-61
2021/12/29 04:26:40;;;;;;;105.30;75.43;;;;;;;;;;5052749;28;20063;-61
2021/12/29 04:29:06;;;;;;;144.13;94.80;;;;;;;;;;5053008;28;20052;-60
2021/12/29 04:31:33;;;;;;;143.45;98.97;;;;;;;;;;5052565;28;20518;-60
2021/12/29 04:34:00;;;;;;;165.23;102.35;;;;;;;;;;5052806;28;20474;-61
2021/12/29 04:36:26;;;;;;;120.22;82.05;;;;;;;;;;5052876;28;20090;-60
2021/12/29 04:38:53;;;;;;;122.70;82.68;;;;;;;;;;5053165;28;20025;-60
2021/12/29 04:41:20;;;;;;;124.38;85.53;;;;;;;;;;5053127;28;20126;-60
2021/12/29 04:43:46;;;;;;;124.65;85.70;;;;;;;;;;5053024;28;20356;-60
2021/12/29 04:46:17;;;;;;;114.97;81.13;;;;;;;;;;5042743;28;20429;-61
2021/12/29 04:48:50;;;;;;;131.82;91.13;;;;;;;;;;5033109;28;20399;-60
2021/12/29 04:51:24;;;;;;;126.53;87.82;;;;;;;;;;5032935;28;20025;-61
2021/12/29 04:53:50;;;;;;;116.38;83.95;;;;;;;;;;5032341;28;20075;-61
2021/12/29 04:56:17;;;;;;;115.65;82.85;;;;;;;;;;5032334;28;20475;-61
2021/12/29 04:58:43;;;;;;;108.55;76.70;;;;;;;;;;5032275;28;20044;-60
2021/12/29 05:01:09;;;;;;;129.82;89.07;;;;;;;;;;5031782;28;20351;-61
2021/12/29 05:03:38;;;;;;;115.40;83.90;;;;;;;;;;5032313;28;20022;-61
2021/12/29 05:08:31;;;;;;;112.45;79.82;;;;;;;;;;5052231;28;20472;-61
2021/12/29 05:11:04;;;;;;;106.00;77.90;;;;;;;;;;5051913;28;20073;-61
2021/12/29 05:13:32;;;;;;;121.25;87.65;;;;;;;;;;5051845;28;20092;-60
2021/12/29 05:15:59;;;;;;;135.40;96.68;;;;;;;;;;5052322;28;20033;-61
2021/12/29 05:18:29;;;;;;;173.80;121.95;;;;;;;;;;5052422;28;20024;-61
2021/12/29 05:20:56;;;;;;;150.00;103.97;;;;;;;;;;5041522;28;20041;-60
2021/12/29 05:23:22;;;;;;;150.20;108.10;;;;;;;;;;5032932;28;20021;-60
2021/12/29 05:25:49;;;;;;;147.98;105.97;;;;;;;;;;5040677;28;20542;-64
2021/12/29 05:28:17;;;;;;;132.82;94.68;;;;;;;;;;5032031;28;20128;-62
2021/12/29 05:30:44;;;;;;;173.52;114.75;;;;;;;;;;5031629;28;20045;-61
2021/12/29 05:33:10;;;;;;;149.48;101.63;;;;;;;;;;5032151;28;20022;-63
2021/12/29 05:35:36;;;;;;;155.65;100.82;;;;;;;;;;5032091;28;20064;-61
2021/12/29 05:38:03;;;;;;;130.35;86.13;;;;;;;;;;5032056;28;20365;-61
2021/12/29 05:40:29;;;;;;;114.60;74.90;;;;;;;;;;5031514;28;20083;-60
2021/12/29 05:42:56;;;;;;;113.30;73.38;;;;;;;;;;5031667;28;20430;-61
2021/12/29 05:45:22;;;;;;;98.28;66.00;;;;;;;;;;5031886;28;20037;-61
2021/12/29 05:47:52;;;;;;;83.13;57.15;;;;;;;;;;5031576;28;20022;-60
2021/12/29 05:50:21;;;;;;;74.78;50.97;;;;;;;;;;5031733;28;20044;-63
2021/12/29 05:52:47;;;;;;;69.65;46.63;;;;;;;;;;5047101;28;20029;-61
2021/12/29 05:55:13;;;;;;;69.50;46.63;;;;;;;;;;5051579;28;20028;-61
2021/12/29 05:57:39;;;;;;;51.50;37.40;;;;;;;;;;5051633;28;20445;-62
2021/12/29 06:00:10;;;;;;;52.80;37.30;;;;;;;;;;5051474;28;20033;-60
2021/12/29 06:02:36;;;;;;;63.53;42.92;;;;;;;;;;5051428;28;20021;-60
2021/12/29 06:05:02;;;;;;;72.15;45.05;;;;;;;;;;5051764;28;20092;-61
2021/12/29 06:07:28;;;;;;;68.65;44.65;;;;;;;;;;5051465;28;20383;-61
2021/12/29 06:09:55;;;;;;;71.60;48.28;;;;;;;;;;5051338;28;20118;-60
2021/12/29 06:12:21;;;;;;;70.47;44.28;;;;;;;;;;5051146;28;20065;-60
2021/12/29 06:14:47;;;;;;;55.00;37.90;;;;;;;;;;5055001;28;20025;-60
2021/12/29 06:17:14;;;;;;;42.58;29.35;;;;;;;;;;5055613;28;20359;-61
2021/12/29 06:19:40;;;;;;;34.47;25.20;;;;;;;;;;5055312;28;20025;-63
2021/12/29 06:22:09;;;;;;;41.22;28.45;;;;;;;;;;5053724;28;20451;-65
2021/12/29 06:24:35;;;;;;;42.70;28.90;;;;;;;;;;5054986;28;20036;-66
2021/12/29 06:27:01;;;;;;;41.15;28.23;;;;;;;;;;5055314;28;20048;-62
2021/12/29 06:29:30;;;;;;;46.67;31.17;;;;;;;;;;5055034;28;20025;-61
2021/12/29 06:31:56;;;;;;;42.72;30.70;;;;;;;;;;5054806;28;20057;-66
2021/12/29 06:34:22;;;;;;;41.85;29.75;;;;;;;;;;5054658;28;20025;-63
2021/12/29 06:36:51;;;;;;;38.75;28.77;;;;;;;;;;5054788;28;20071;-62
2021/12/29 06:39:17;;;;;;;40.10;29.83;;;;;;;;;;5054746;28;20479;-61
2021/12/29 06:41:44;;;;;;;42.10;32.15;;;;;;;;;;5054597;28;20107;-64
2021/12/29 06:44:11;;;;;;;45.20;31.77;;;;;;;;;;5054615;28;20499;-65
2021/12/29 06:46:37;;;;;;;46.72;32.75;;;;;;;;;;5054678;28;20033;-67
2021/12/29 06:49:06;;;;;;;59.20;38.17;;;;;;;;;;5054480;28;20447;-61
2021/12/29 06:51:35;;;;;;;61.22;45.45;;;;;;;;;;5054389;28;20492;-65
2021/12/29 06:54:01;;;;;;;62.40;45.28;;;;;;;;;;5054411;28;20425;-67
2021/12/29 06:56:27;;;;;;;62.55;44.10;;;;;;;;;;5054109;28;20120;-68
2021/12/29 06:58:53;;;;;;;71.18;52.00;;;;;;;;;;5054450;28;20025;-66
2021/12/29 07:01:19;;;;;;;64.97;46.65;;;;;;;;;;5054626;28;20029;-67
2021/12/29 07:03:45;;;;;;;67.55;46.47;;;;;;;;;;5054459;28;20080;-67
2021/12/29 07:06:11;;;;;;;64.25;48.30;;;;;;;;;;5054772;28;20013;-67
2021/12/29 07:08:40;;;;;;;57.58;42.88;;;;;;;;;;5054088;28;20025;-67
2021/12/29 07:11:06;;;;;;;71.72;49.60;;;;;;;;;;5054156;28;20029;-66
2021/12/29 07:13:32;;;;;;;54.00;41.42;;;;;;;;;;5054521;28;20029;-65
2021/12/29 07:15:58;;;;;;;57.83;45.45;;;;;;;;;;5054454;28;20087;-61
2021/12/29 07:18:24;;;;;;;57.22;46.10;;;;;;;;;;5054325;28;20059;-62
2021/12/29 07:20:50;;;;;;;60.60;46.30;;;;;;;;;;5054389;28;20087;-65
2021/12/29 07:23:16;;;;;;;62.50;47.25;;;;;;;;;;5054076;28;20356;-66
2021/12/29 07:25:42;;;;;;;70.50;47.17;;;;;;;;;;5053619;28;20108;-62
2021/12/29 07:28:08;;;;;;;74.70;51.42;;;;;;;;;;5053998;28;20092;-61
2021/12/29 07:30:35;;;;;;;61.58;44.72;;;;;;;;;;5053753;28;20074;-63
2021/12/29 07:33:01;;;;;;;54.67;42.50;;;;;;;;;;5053776;28;20104;-62
2021/12/29 07:35:27;;;;;;;62.00;46.15;;;;;;;;;;5053714;28;20174;-61
2021/12/29 07:37:53;;;;;;;69.32;50.67;;;;;;;;;;5053782;28;20028;-66
2021/12/29 07:40:20;;;;;;;68.40;46.88;;;;;;;;;;5053421;28;20068;-61
2021/12/29 07:42:46;;;;;;;64.55;46.95;;;;;;;;;;5053446;28;20094;-61
2021/12/29 07:45:12;;;;;;;62.83;44.40;;;;;;;;;;5053715;28;20490;-63
2021/12/29 07:47:45;;;;;;;69.43;51.28;;;;;;;;;;5053420;28;20029;-61
2021/12/29 07:50:11;;;;;;;69.05;51.85;;;;;;;;;;5053354;28;20029;-61
2021/12/29 07:52:37;;;;;;;74.25;53.88;;;;;;;;;;5052971;28;20395;-61
2021/12/29 07:55:03;;;;;;;78.80;56.90;;;;;;;;;;5053296;28;20025;-62
2021/12/29 07:57:30;;;;;;;85.10;65.68;;;;;;;;;;5052930;28;20067;-62
2021/12/29 07:59:56;;;;;;;63.22;47.08;;;;;;;;;;5053210;28;20056;-61
2021/12/29 08:02:27;;;;;;;105.70;89.57;;;;;;;;;;5053067;28;20021;-63
2021/12/29 08:04:54;;;;;;;77.55;60.22;;;;;;;;;;5051719;28;20095;-61
2021/12/29 08:07:20;;;;;;;111.53;87.70;;;;;;;;;;5053049;28;20048;-63
2021/12/29 08:09:47;;;;;;;101.63;80.45;;;;;;;;;;5053055;28;20013;-63
2021/12/29 08:12:13;;;;;;;117.40;93.68;;;;;;;;;;5052900;28;20076;-64
2021/12/29 08:14:39;;;;;;;82.85;62.35;;;;;;;;;;5053010;28;20032;-63
2021/12/29 08:17:05;;;;;;;77.50;58.42;;;;;;;;;;5052965;28;20047;-63
2021/12/29 08:19:31;;;;;;;77.22;58.88;;;;;;;;;;5052881;28;20013;-65
2021/12/29 08:21:57;;;;;;;89.05;65.38;;;;;;;;;;5052664;28;20031;-63
2021/12/29 08:24:24;;;;;;;93.28;70.97;;;;;;;;;;5053000;28;20039;-64
2021/12/29 08:26:50;;;;;;;117.38;84.63;;;;;;;;;;5052548;28;20021;-63
2021/12/29 08:29:16;;;;;;;111.90;85.80;;;;;;;;;;5052779;28;20029;-63
2021/12/29 08:31:42;;;;;;;118.40;88.40;;;;;;;;;;5052380;28;20498;-62
2021/12/29 08:34:08;;;;;;;120.78;93.28;;;;;;;;;;5051255;28;20021;-64
2021/12/29 08:36:34;;;;;;;130.07;92.93;;;;;;;;;;5051595;28;20025;-64
2021/12/29 08:39:00;;;;;;;119.72;88.57;;;;;;;;;;5052463;28;20131;-63
2021/12/29 08:41:26;;;;;;;113.50;79.53;;;;;;;;;;5052815;28;20021;-63
2021/12/29 08:43:52;;;;;;;102.32;71.38;;;;;;;;;;5052313;28;20021;-64
2021/12/29 08:46:19;;;;;;;102.05;68.03;;;;;;;;;;5052139;28;20105;-62
2021/12/29 08:48:45;;;;;;;103.88;66.32;;;;;;;;;;5052282;28;20021;-66
2021/12/29 08:51:11;;;;;;;96.35;64.85;;;;;;;;;;5052170;28;20021;-62
2021/12/29 08:53:38;;;;;;;98.05;71.07;;;;;;;;;;5052065;28;20376;-65
2021/12/29 08:56:05;;;;;;;109.28;81.00;;;;;;;;;;5050742;28;20064;-62
2021/12/29 08:58:31;;;;;;;133.73;98.78;;;;;;;;;;5051776;28;20056;-66
2021/12/29 09:00:59;;;;;;;132.55;99.43;;;;;;;;;;5052201;28;20049;-65
2021/12/29 09:03:25;;;;;;;130.63;95.50;;;;;;;;;;5051994;28;20041;-62
2021/12/29 09:05:52;;;;;;;129.68;93.72;;;;;;;;;;5051993;28;20080;-62
2021/12/29 09:08:18;;;;;;;131.70;93.05;;;;;;;;;;5050531;28;20394;-61
2021/12/29 09:10:44;;;;;;;99.20;72.53;;;;;;;;;;5051549;28;20059;-63
2021/12/29 09:13:11;;;;;;;82.47;59.85;;;;;;;;;;5051851;28;20075;-62
2021/12/29 09:15:37;;;;;;;83.07;60.80;;;;;;;;;;5051729;28;20060;-63
2021/12/29 09:18:03;;;;;;;71.18;53.67;;;;;;;;;;5051949;28;20053;-65
2021/12/29 09:20:32;;;;;;;69.78;51.42;;;;;;;;;;5051889;28;20071;-62
2021/12/29 09:23:06;;;;;;;74.18;53.42;;;;;;;;;;5052054;28;20135;-61
2021/12/29 09:25:32;;;;;;;77.53;56.10;;;;;;;;;;5051967;28;20376;-62
2021/12/29 09:27:59;;;;;;;64.88;45.58;;;;;;;;;;5051794;28;20025;-63
2021/12/29 09:30:26;;;;;;;63.30;45.63;;;;;;;;;;5051457;28;20051;-66
2021/12/29 09:32:53;;;;;;;71.15;48.63;;;;;;;;;;5051950;28;20387;-64
2021/12/29 09:35:20;;;;;;;85.53;61.60;;;;;;;;;;5051730;28;20027;-62
2021/12/29 09:37:47;;;;;;;89.60;63.10;;;281.90;2278.40;;;;;;5051577;28;20450;-63
2021/12/29 09:40:15;;;;;;;65.72;48.40;;;282.10;2278.40;;;;;;5051628;28;20074;-62
2021/12/29 09:42:41;;;;;;;58.60;40.83;;;282.00;2278.40;;;;;;5051140;28;20104;-63
2021/12/29 09:45:09;;;;;;;64.95;45.30;;;282.00;2278.40;;;;;;5051577;28;20383;-64
2021/12/29 09:47:35;;;;;;;72.05;49.75;;;282.20;2278.40;;;;;;5053723;28;20025;-62
2021/12/29 09:50:07;;;;;;;75.00;55.05;;;;;;;;;;5055868;28;20032;-62
2021/12/29 09:52:33;;;;;;;64.10;46.95;;;307.30;2304.00;;;;;;5055242;28;20055;-63
2021/12/29 09:55:06;;;;;;;49.22;38.47;;;307.40;2304.00;;;;;;5055762;28;20106;-65
2021/12/29 09:57:33;;;;;;;49.28;35.97;;;;;;;;;;5055347;28;20070;-62
2021/12/29 09:59:59;;;;;;;55.38;38.40;;;;;;;;;;5055360;28;20048;-62
2021/12/29 10:02:25;;;;;;;52.13;36.63;;;;;;;;;;5055408;28;20021;-63
2021/12/29 10:04:52;;;;;;;69.50;45.30;;;282.50;2278.40;;;;;;5055324;28;20020;-60
2021/12/29 10:07:20;;;;;;;57.65;39.30;;;307.20;2304.00;;;;;;5055288;28;20029;-61
2021/12/29 10:09:46;;;;;;;64.07;44.35;;;307.20;2304.00;;;;;;5055211;28;20028;-61
2021/12/29 10:12:19;;;;;;;47.00;34.40;;;;;;;;;;5055148;28;20530;-64
2021/12/29 10:14:53;;;;;;;50.92;35.00;;;307.30;2304.00;;;;;;5055150;28;20497;-64
2021/12/29 10:17:21;;;;;;;47.28;33.75;;;307.20;2304.00;;;;;;5055380;28;20032;-62
2021/12/29 10:19:47;;;;;;;43.03;27.00;;;;;;;;;;5055469;28;20021;-64
2021/12/29 10:22:20;;;;;;;36.22;24.92;;;;;;;;;;5055265;28;20466;-62
2021/12/29 10:24:46;;;;;;;25.05;18.40;;;;;;;;;;5054812;28;20032;-63
2021/12/29 10:27:18;;;;;;;82.05;65.72;;;;;;;;;;5054803;28;20021;-62
2021/12/29 10:29:44;;;;;;;39.60;32.95;;;;;;;;;;5054792;28;20078;-63
2021/12/29 10:32:10;;;;;;;50.08;42.33;;;;;;;;;;5054615;28;20045;-62
2021/12/29 10:34:36;;;;;;;41.05;32.63;;;;;;;;;;5054713;28;20032;-64
2021/12/29 10:37:05;;;;;;;22.77;17.35;;;;;;;;;;5054536;28;20021;-61
2021/12/29 10:39:45;;;;;;;68.13;37.90;;;;;;;;;;5053198;28;20495;-60
2021/12/29 10:42:15;;;;;;;49.38;32.75;;;;;;;;;;5054872;28;20038;-66
2021/12/29 10:44:44;;;;;;;33.33;27.20;;;;;;;;;;5054590;28;20033;-65
2021/12/29 10:47:14;;;;;;;37.05;28.00;;;;;;;;;;5054611;28;20479;-65
2021/12/29 10:49:49;;;;;;;66.38;44.63;;;;;;;;;;5054323;28;20029;-61
2021/12/29 10:52:15;;;;;;;57.70;44.63;;;;;;;;;;5054130;28;20033;-62
2021/12/29 10:54:41;;;;;;;56.42;38.72;;;;;;;;;;5052946;28;20029;-65
2021/12/29 10:57:12;;;;;;;40.58;30.02;;;;;;;;;;5054153;28;20040;-61
2021/12/29 10:59:41;;;;;;;34.83;25.47;;;;;;;;;;5053383;28;20028;-63
2021/12/29 11:02:09;;;;;;;31.83;24.05;;;;;;;;;;5054480;28;20711;-61
2021/12/29 11:04:35;;;;;;;47.78;33.88;;;;;;;;;;5054177;28;20483;-67
2021/12/29 11:07:01;;;;;;;125.70;73.78;;;;;;;;;;5054144;28;20028;-62
2021/12/29 11:09:29;;;;;;;44.78;33.67;;;;;;;;;;5053915;28;20483;-60
2021/12/29 11:11:56;;;;;;;38.47;26.35;;;;;;;;;;5054014;28;20131;-60
2021/12/29 11:14:24;;;;;;;59.10;41.22;;;;;;;;;;5054027;28;20021;-64
2021/12/29 11:17:01;;;;;;;39.55;28.95;;;;;;;;;;5054287;28;20033;-60
2021/12/29 11:19:28;;;;;;;33.05;26.08;;;;;;;;;;5054157;28;20025;-61
2021/12/29 11:22:04;;;;;;;35.72;27.92;;;;;;;;;;5053727;28;20479;-64
2021/12/29 11:24:30;;;;;;;34.17;26.08;;;;;;;;;;5053962;28;20033;-61
2021/12/29 11:26:58;;;;;;;45.13;31.13;;;;;;;;;;5052397;28;20108;-60
2021/12/29 11:29:25;;;;;;;43.67;33.00;;;;;;;;;;5053738;28;20031;-65
2021/12/29 11:32:01;;;;;;;42.85;31.83;;;;;;;;;;5053368;28;20053;-64
2021/12/29 11:34:28;;;;;;;39.28;29.42;;;;;;;;;;5053715;28;20071;-62
2021/12/29 11:37:02;;;;;;;52.60;39.83;;;;;;;;;;5053515;28;20021;-61
2021/12/29 11:39:28;;;;;;;51.10;38.42;;;;;;;;;;5052258;28;20067;-63
2021/12/29 11:41:54;;;;;;;35.03;28.27;;;;;;;;;;5053472;28;20025;-62
2021/12/29 11:44:21;;;;;;;106.18;85.55;;;;;;;;;;5053580;28;20017;-61
2021/12/29 11:46:47;;;;;;;74.82;60.72;;;;;;;;;;5053294;28;20132;-63
2021/12/29 11:49:13;;;;;;;56.13;45.10;;;;;;;;;;5053358;28;20398;-61
2021/12/29 11:52:02;;;;;;;32.03;24.45;;;;;;;;;;5053028;28;20082;-62
2021/12/29 11:54:36;;;;;;;46.28;33.38;;;;;;;;;;5053212;28;20368;-60
2021/12/29 11:57:12;;;;;;;36.15;28.23;;;;;;;;;;5052841;28;20545;-65
2021/12/29 11:59:39;;;;;;;26.45;21.58;;;;;;;;;;5052915;28;20104;-60
2021/12/29 12:02:05;;;;;;;29.13;23.75;;;;;;;;;;5052977;28;20044;-60
2021/12/29 12:04:31;;;;;;;36.80;27.38;;;;;;;;;;5052876;28;20025;-60
2021/12/29 12:07:02;;;;;;;40.67;32.05;;;;;;;;;;5053044;28;20040;-61
2021/12/29 12:09:28;;;;;;;56.03;42.95;;;;;;;;;;5052843;28;20515;-60
2021/12/29 12:12:03;;;;;;;64.15;50.67;;;;;;;;;;5052086;28;20132;-62
2021/12/29 12:14:31;;;;;;;61.25;54.65;;;;;;;;;;5052985;28;20057;-61
2021/12/29 12:16:57;;;;;;;53.03;43.83;;;;;;;;;;5053561;28;20372;-61
2021/12/29 12:19:24;;;;;;;31.85;25.50;;;;;;;;;;5052900;28;20055;-60
2021/12/29 12:22:02;;;;;;;41.10;33.10;;;;;;;;;;5052630;28;20021;-60
2021/12/29 12:24:28;;;;;;;42.95;34.00;;;;;;;;;;5052790;28;20100;-60
2021/12/29 12:27:05;;;;;;;68.57;53.70;;;;;;;;;;5052631;28;20115;-61
2021/12/29 12:29:33;;;;;;;87.45;68.55;;;;;;;;;;5052669;28;20423;-60
2021/12/29 12:32:10;;;;;;;129.73;101.20;;;;;;;;;;5052485;28;20045;-60
2021/12/29 12:34:47;;;;;;;172.73;130.13;;;;;;;;;;5052544;28;20025;-60
2021/12/29 12:37:18;;;;;;;191.20;145.93;;;;;;;;;;5052830;28;20035;-63
2021/12/29 12:39:54;;;;;;;136.20;97.50;;;;;;;;;;5052799;28;20029;-60
2021/12/29 12:42:20;;;;;;;137.80;100.65;;;;;;;;;;5052729;28;20116;-65
2021/12/29 12:44:47;;;;;;;101.32;75.38;;;;;;;;;;5052469;28;20028;-63
2021/12/29 12:47:13;;;;;;;134.98;107.43;;;;;;;;;;5052401;28;20033;-61
2021/12/29 12:49:43;;;;;;;138.95;103.50;;;;;;;;;;5052467;28;20039;-61
2021/12/29 12:52:10;;;;;;;120.95;94.30;;;;;;;;;;5052393;28;20044;-60
2021/12/29 12:54:38;;;;;;;135.40;100.15;;;;;;;;;;5052267;28;20047;-60
2021/12/29 12:57:04;;;;;;;100.43;74.68;;;;;;;;;;5052114;28;20025;-62
2021/12/29 12:59:41;;;;;;;124.25;87.53;;;;;;;;;;5051942;28;20028;-61
2021/12/29 13:02:12;;;;;;;129.23;93.38;;;;;;;;;;5051962;28;20036;-61
2021/12/29 13:04:42;;;;;;;84.85;59.88;;;;;;;;;;5052275;28;20383;-60
2021/12/29 13:07:08;;;;;;;80.78;57.33;;;;;;;;;;5051893;28;20025;-64
2021/12/29 13:09:45;;;;;;;79.78;59.95;;;;;;;;;;5050734;28;20036;-60
2021/12/29 13:12:11;;;;;;;63.47;48.95;;;;;;;;;;5052021;28;20029;-65
2021/12/29 13:14:37;;;;;;;66.43;49.50;;;;;;;;;;5052027;28;20020;-60
2021/12/29 13:17:04;;;;;;;55.08;43.80;;;;;;;;;;5052129;28;20033;-60
2021/12/29 13:19:30;;;;;;;59.10;43.95;;;;;;;;;;5052030;28;20021;-62
2021/12/29 13:21:59;;;;;;;77.22;57.63;;;;;;;;;;5050107;28;20051;-63
2021/12/29 13:24:25;;;;;;;72.82;56.08;;;;;;;;;;5051946;28;20013;-60
2021/12/29 13:26:52;;;;;;;71.25;55.28;;;;;;;;;;5051690;28;20028;-60
2021/12/29 13:29:23;;;;;;;186.52;144.82;;;;;;;;;;5051961;28;20086;-60
2021/12/29 13:31:51;;;;;;;89.13;69.35;;;;;;;;;;5051427;28;20148;-63
2021/12/29 13:34:19;;;;;;;96.10;74.30;;;;;;;;;;5051959;28;20059;-60
2021/12/29 13:36:45;;;;;;;98.50;81.00;;;;;;;;;;5051609;28;20065;-61
2021/12/29 13:39:12;;;;;;;113.57;94.03;;;;;;;;;;5051536;28;20021;-60
2021/12/29 13:41:38;;;;;;;99.20;78.68;;;;;;;;;;5051524;28;20037;-60
2021/12/29 13:44:06;;;;;;;87.63;68.95;;;;;;;;;;5051432;28;20021;-62
2021/12/29 13:46:50;;;;;;;97.82;76.15;;;;;;;;;;5051785;28;20025;-62
2021/12/29 13:49:16;;;;;;;94.05;77.88;;;;;;;;;;5051652;28;20391;-65